sensor_id;sensor_type;location;lat;lon;timestamp;temperature;humidity
10660;DHT22;5378;53.206;13.316;2022-12-18T00:00:01;-3.30;99.90
10660;DHT22;5378;53.206;13.316;2022-12-18T00:02:48;-3.30;99.90
10660;DHT22;5378;53.206;13.316;2022-12-18T00:05:35;-3.30;99.90
10660;DHT22;5378;53.206;13.316;2022-12-18T00:08:23;-3.50;99.90
10660;DHT22;5378;53.206;13.316;2022-12-18T00:11:12;-3.40;99.90
10660;DHT22;5378;53.206;13.316;2022-12-18T00:14:00;-3.30;99.90
10660;DHT22;5378;53.206;13.316;2022-12-18T00:16:47;-3.40;99.90
10660;DHT22;5378;53.206;13.316;2022-12-18T00:19:34;-3.40;99.90
10660;DHT22;5378;53.206;13.316;2022-12-18T00:22:22;-3.30;99.90
10660;DHT22;5378;53.206;13.316;2022-12-18T00:25:09;-3.30;99.90
10660;DHT22;5378;53.206;13.316;2022-12-18T00:27:56;-3.40;99.90
10660;DHT22;5378;53.206;13.316;2022-12-18T00:30:45;-3.30;99.90
10660;DHT22;5378;53.206;13.316;2022-12-18T00:33:32;-3.40;99.90
10660;DHT22;5378;53.206;13.316;2022-12-18T00:36:22;-3.40;99.90
10660;DHT22;5378;53.206;13.316;2022-12-18T00:39:11;-3.30;99.90
10660;DHT22;5378;53.206;13.316;2022-12-18T00:41:58;-3.20;99.90
10660;DHT22;5378;53.206;13.316;2022-12-18T00:45:03;-3.20;99.90
10660;DHT22;5378;53.206;13.316;2022-12-18T00:47:55;-3.20;99.90
10660;DHT22;5378;53.206;13.316;2022-12-18T00:50:42;-3.20;99.90
10660;DHT22;5378;53.206;13.316;2022-12-18T00:53:29;-3.30;99.90
10660;DHT22;5378;53.206;13.316;2022-12-18T00:56:16;-3.10;99.90
10660;DHT22;5378;53.206;13.316;2022-12-18T00:59:06;-3.30;99.90
10660;DHT22;5378;53.206;13.316;2022-12-18T01:01:54;-3.30;99.90
10660;DHT22;5378;53.206;13.316;2022-12-18T01:04:42;-3.30;99.90
10660;DHT22;5378;53.206;13.316;2022-12-18T01:07:29;-3.30;99.90
10660;DHT22;5378;53.206;13.316;2022-12-18T01:10:17;-3.30;99.90
10660;DHT22;5378;53.206;13.316;2022-12-18T01:13:04;-3.30;99.90
10660;DHT22;5378;53.206;13.316;2022-12-18T01:15:51;-3.30;99.90
10660;DHT22;5378;53.206;13.316;2022-12-18T01:18:38;-3.20;99.90
10660;DHT22;5378;53.206;13.316;2022-12-18T01:21:27;-3.20;99.90
10660;DHT22;5378;53.206;13.316;2022-12-18T01:24:14;-3.20;99.90
10660;DHT22;5378;53.206;13.316;2022-12-18T01:27:02;-3.20;99.90
10660;DHT22;5378;53.206;13.316;2022-12-18T01:29:49;-3.20;99.90
10660;DHT22;5378;53.206;13.316;2022-12-18T01:32:38;-3.30;99.90
10660;DHT22;5378;53.206;13.316;2022-12-18T01:35:25;-3.20;99.90
10660;DHT22;5378;53.206;13.316;2022-12-18T01:38:13;-3.20;99.90
10660;DHT22;5378;53.206;13.316;2022-12-18T01:41:01;-3.30;99.90
10660;DHT22;5378;53.206;13.316;2022-12-18T01:43:51;-3.20;99.90
10660;DHT22;5378;53.206;13.316;2022-12-18T01:46:39;-3.20;99.90
10660;DHT22;5378;53.206;13.316;2022-12-18T01:49:26;-3.30;99.90
10660;DHT22;5378;53.206;13.316;2022-12-18T01:52:14;-3.30;99.90
10660;DHT22;5378;53.206;13.316;2022-12-18T01:55:05;-3.40;99.90
10660;DHT22;5378;53.206;13.316;2022-12-18T01:57:55;-3.30;99.90
10660;DHT22;5378;53.206;13.316;2022-12-18T02:00:43;-3.20;99.90
10660;DHT22;5378;53.206;13.316;2022-12-18T02:03:30;-3.30;99.90
10660;DHT22;5378;53.206;13.316;2022-12-18T02:06:21;-3.30;99.90
10660;DHT22;5378;53.206;13.316;2022-12-18T02:09:13;-3.20;99.90
10660;DHT22;5378;53.206;13.316;2022-12-18T02:12:09;-3.40;99.90
10660;DHT22;5378;53.206;13.316;2022-12-18T02:15:02;-3.40;99.90
10660;DHT22;5378;53.206;13.316;2022-12-18T02:17:56;-3.40;99.90
10660;DHT22;5378;53.206;13.316;2022-12-18T02:20:47;-3.40;99.90
10660;DHT22;5378;53.206;13.316;2022-12-18T02:23:46;-3.40;99.90
10660;DHT22;5378;53.206;13.316;2022-12-18T02:26:37;-3.30;99.90
10660;DHT22;5378;53.206;13.316;2022-12-18T02:29:31;-3.30;99.90
10660;DHT22;5378;53.206;13.316;2022-12-18T02:32:23;-3.30;99.90
10660;DHT22;5378;53.206;13.316;2022-12-18T02:35:14;-3.30;99.90
10660;DHT22;5378;53.206;13.316;2022-12-18T02:38:04;-3.30;99.90
10660;DHT22;5378;53.206;13.316;2022-12-18T02:40:54;-3.30;99.90
10660;DHT22;5378;53.206;13.316;2022-12-18T02:43:47;-3.20;99.90
10660;DHT22;5378;53.206;13.316;2022-12-18T02:46:37;-3.20;99.90
10660;DHT22;5378;53.206;13.316;2022-12-18T02:49:36;-3.20;99.90
10660;DHT22;5378;53.206;13.316;2022-12-18T02:52:33;-3.20;99.90
10660;DHT22;5378;53.206;13.316;2022-12-18T02:55:32;-3.20;99.90
10660;DHT22;5378;53.206;13.316;2022-12-18T02:58:30;-3.20;99.90
10660;DHT22;5378;53.206;13.316;2022-12-18T03:01:33;-3.30;99.90
10660;DHT22;5378;53.206;13.316;2022-12-18T03:04:26;-3.20;99.90
10660;DHT22;5378;53.206;13.316;2022-12-18T03:07:18;-3.20;99.90
10660;DHT22;5378;53.206;13.316;2022-12-18T03:10:09;-3.10;99.90
10660;DHT22;5378;53.206;13.316;2022-12-18T03:13:03;-3.00;99.90
10660;DHT22;5378;53.206;13.316;2022-12-18T03:15:54;-3.00;99.90
10660;DHT22;5378;53.206;13.316;2022-12-18T03:18:47;-3.00;99.90
10660;DHT22;5378;53.206;13.316;2022-12-18T03:21:40;-3.00;99.90
10660;DHT22;5378;53.206;13.316;2022-12-18T03:24:29;-3.00;99.90
10660;DHT22;5378;53.206;13.316;2022-12-18T03:27:20;-3.00;99.90
10660;DHT22;5378;53.206;13.316;2022-12-18T03:30:12;-3.00;99.90
10660;DHT22;5378;53.206;13.316;2022-12-18T03:33:05;-3.00;99.90
10660;DHT22;5378;53.206;13.316;2022-12-18T03:35:58;-3.20;99.90
10660;DHT22;5378;53.206;13.316;2022-12-18T03:38:46;-3.30;99.90
10660;DHT22;5378;53.206;13.316;2022-12-18T03:41:40;-3.40;99.90
10660;DHT22;5378;53.206;13.316;2022-12-18T03:44:43;-3.40;99.90
10660;DHT22;5378;53.206;13.316;2022-12-18T03:47:38;-3.40;99.90
10660;DHT22;5378;53.206;13.316;2022-12-18T03:50:35;-3.40;99.90
10660;DHT22;5378;53.206;13.316;2022-12-18T03:53:34;-3.30;99.90
10660;DHT22;5378;53.206;13.316;2022-12-18T03:56:26;-3.40;99.90
10660;DHT22;5378;53.206;13.316;2022-12-18T03:59:18;-3.30;99.90
10660;DHT22;5378;53.206;13.316;2022-12-18T04:02:06;-3.30;99.90
10660;DHT22;5378;53.206;13.316;2022-12-18T04:04:58;-3.30;99.90
10660;DHT22;5378;53.206;13.316;2022-12-18T04:07:49;-3.30;99.90
10660;DHT22;5378;53.206;13.316;2022-12-18T04:10:39;-3.10;99.90
10660;DHT22;5378;53.206;13.316;2022-12-18T04:13:29;-3.30;99.90
10660;DHT22;5378;53.206;13.316;2022-12-18T04:16:18;-3.30;99.90
10660;DHT22;5378;53.206;13.316;2022-12-18T04:19:09;-3.50;99.90
10660;DHT22;5378;53.206;13.316;2022-12-18T04:21:59;-3.50;99.90
10660;DHT22;5378;53.206;13.316;2022-12-18T04:24:50;-3.50;99.90
10660;DHT22;5378;53.206;13.316;2022-12-18T04:27:48;-3.50;99.90
10660;DHT22;5378;53.206;13.316;2022-12-18T04:30:36;-3.40;99.90
10660;DHT22;5378;53.206;13.316;2022-12-18T04:33:23;-3.30;99.90
10660;DHT22;5378;53.206;13.316;2022-12-18T04:36:10;-3.40;99.90
10660;DHT22;5378;53.206;13.316;2022-12-18T04:38:59;-3.30;99.90
10660;DHT22;5378;53.206;13.316;2022-12-18T04:41:47;-3.30;99.90
10660;DHT22;5378;53.206;13.316;2022-12-18T04:44:36;-3.20;99.90
10660;DHT22;5378;53.206;13.316;2022-12-18T04:47:22;-3.20;99.90
10660;DHT22;5378;53.206;13.316;2022-12-18T04:50:10;-3.30;99.90
10660;DHT22;5378;53.206;13.316;2022-12-18T04:52:57;-3.30;99.90
10660;DHT22;5378;53.206;13.316;2022-12-18T04:55:44;-3.30;99.90
10660;DHT22;5378;53.206;13.316;2022-12-18T04:58:31;-3.30;99.90
10660;DHT22;5378;53.206;13.316;2022-12-18T05:01:20;-3.40;99.90
10660;DHT22;5378;53.206;13.316;2022-12-18T05:04:07;-3.40;99.90
10660;DHT22;5378;53.206;13.316;2022-12-18T05:06:54;-3.30;99.90
10660;DHT22;5378;53.206;13.316;2022-12-18T05:09:41;-3.30;99.90
10660;DHT22;5378;53.206;13.316;2022-12-18T05:12:28;-3.10;99.90
10660;DHT22;5378;53.206;13.316;2022-12-18T05:15:15;-3.10;99.90
10660;DHT22;5378;53.206;13.316;2022-12-18T05:18:04;-3.10;99.90
10660;DHT22;5378;53.206;13.316;2022-12-18T05:20:52;-3.20;99.90
10660;DHT22;5378;53.206;13.316;2022-12-18T05:23:39;-3.20;99.90
10660;DHT22;5378;53.206;13.316;2022-12-18T05:26:26;-3.30;99.90
10660;DHT22;5378;53.206;13.316;2022-12-18T05:29:14;-3.30;99.90
10660;DHT22;5378;53.206;13.316;2022-12-18T05:32:01;-3.20;99.90
10660;DHT22;5378;53.206;13.316;2022-12-18T05:34:49;-3.10;99.90
10660;DHT22;5378;53.206;13.316;2022-12-18T05:37:37;-3.10;99.90
10660;DHT22;5378;53.206;13.316;2022-12-18T05:40:27;-3.10;99.90
10660;DHT22;5378;53.206;13.316;2022-12-18T05:43:14;-3.20;99.90
10660;DHT22;5378;53.206;13.316;2022-12-18T05:46:07;-3.10;99.90
10660;DHT22;5378;53.206;13.316;2022-12-18T05:48:54;-3.10;99.90
10660;DHT22;5378;53.206;13.316;2022-12-18T05:51:42;-3.20;99.90
10660;DHT22;5378;53.206;13.316;2022-12-18T05:54:29;-3.30;99.90
10660;DHT22;5378;53.206;13.316;2022-12-18T05:57:16;-3.30;99.90
10660;DHT22;5378;53.206;13.316;2022-12-18T06:00:04;-3.20;99.90
10660;DHT22;5378;53.206;13.316;2022-12-18T06:02:56;-3.30;99.90
10660;DHT22;5378;53.206;13.316;2022-12-18T06:05:44;-3.30;99.90
10660;DHT22;5378;53.206;13.316;2022-12-18T06:08:33;-3.20;99.90
10660;DHT22;5378;53.206;13.316;2022-12-18T06:11:24;-3.20;99.90
10660;DHT22;5378;53.206;13.316;2022-12-18T06:14:11;-3.20;99.90
10660;DHT22;5378;53.206;13.316;2022-12-18T06:16:58;-3.30;99.90
10660;DHT22;5378;53.206;13.316;2022-12-18T06:19:46;-3.20;99.90
10660;DHT22;5378;53.206;13.316;2022-12-18T06:22:33;-3.40;99.90
10660;DHT22;5378;53.206;13.316;2022-12-18T06:25:21;-3.40;99.90
10660;DHT22;5378;53.206;13.316;2022-12-18T06:28:08;-3.40;99.90
10660;DHT22;5378;53.206;13.316;2022-12-18T06:30:56;-3.40;99.90
10660;DHT22;5378;53.206;13.316;2022-12-18T06:33:43;-3.40;99.90
10660;DHT22;5378;53.206;13.316;2022-12-18T06:36:31;-3.40;99.90
10660;DHT22;5378;53.206;13.316;2022-12-18T06:39:18;-3.50;99.90
10660;DHT22;5378;53.206;13.316;2022-12-18T06:42:06;-3.50;99.90
10660;DHT22;5378;53.206;13.316;2022-12-18T06:44:53;-3.40;99.90
10660;DHT22;5378;53.206;13.316;2022-12-18T06:47:40;-3.50;99.90
10660;DHT22;5378;53.206;13.316;2022-12-18T06:50:27;-3.60;99.90
10660;DHT22;5378;53.206;13.316;2022-12-18T06:53:15;-3.70;99.90
10660;DHT22;5378;53.206;13.316;2022-12-18T06:56:02;-3.60;99.90
10660;DHT22;5378;53.206;13.316;2022-12-18T06:58:54;-3.60;99.90
10660;DHT22;5378;53.206;13.316;2022-12-18T07:01:41;-3.60;99.90
10660;DHT22;5378;53.206;13.316;2022-12-18T07:04:29;-3.60;99.90
10660;DHT22;5378;53.206;13.316;2022-12-18T07:07:16;-3.70;99.90
10660;DHT22;5378;53.206;13.316;2022-12-18T07:10:04;-3.80;99.90
10660;DHT22;5378;53.206;13.316;2022-12-18T07:12:51;-3.70;99.90
10660;DHT22;5378;53.206;13.316;2022-12-18T07:15:39;-3.70;99.90
10660;DHT22;5378;53.206;13.316;2022-12-18T07:18:26;-3.80;99.90
10660;DHT22;5378;53.206;13.316;2022-12-18T07:21:17;-3.80;99.90
10660;DHT22;5378;53.206;13.316;2022-12-18T07:24:05;-3.70;99.90
10660;DHT22;5378;53.206;13.316;2022-12-18T07:26:53;-3.60;99.90
10660;DHT22;5378;53.206;13.316;2022-12-18T07:29:40;-3.70;99.90
10660;DHT22;5378;53.206;13.316;2022-12-18T07:32:30;-3.70;99.90
10660;DHT22;5378;53.206;13.316;2022-12-18T07:35:17;-3.70;99.90
10660;DHT22;5378;53.206;13.316;2022-12-18T07:38:07;-3.80;99.90
10660;DHT22;5378;53.206;13.316;2022-12-18T07:40:59;-3.80;99.90
10660;DHT22;5378;53.206;13.316;2022-12-18T07:43:47;-3.80;99.90
10660;DHT22;5378;53.206;13.316;2022-12-18T07:46:34;-3.90;99.90
10660;DHT22;5378;53.206;13.316;2022-12-18T07:49:23;-4.00;99.90
10660;DHT22;5378;53.206;13.316;2022-12-18T07:52:10;-4.20;99.90
10660;DHT22;5378;53.206;13.316;2022-12-18T07:54:58;-4.20;99.90
10660;DHT22;5378;53.206;13.316;2022-12-18T07:57:45;-4.30;99.90
10660;DHT22;5378;53.206;13.316;2022-12-18T08:00:36;-4.40;99.90
10660;DHT22;5378;53.206;13.316;2022-12-18T08:03:24;-4.30;99.90
10660;DHT22;5378;53.206;13.316;2022-12-18T08:06:12;-4.30;99.90
10660;DHT22;5378;53.206;13.316;2022-12-18T08:08:59;-4.20;99.90
10660;DHT22;5378;53.206;13.316;2022-12-18T08:11:46;-4.30;99.90
10660;DHT22;5378;53.206;13.316;2022-12-18T08:14:33;-4.20;99.90
10660;DHT22;5378;53.206;13.316;2022-12-18T08:17:21;-4.20;99.90
10660;DHT22;5378;53.206;13.316;2022-12-18T08:20:09;-4.10;99.90
10660;DHT22;5378;53.206;13.316;2022-12-18T08:22:57;-3.90;99.90
10660;DHT22;5378;53.206;13.316;2022-12-18T08:25:44;-3.80;99.90
10660;DHT22;5378;53.206;13.316;2022-12-18T08:28:31;-3.90;99.90
10660;DHT22;5378;53.206;13.316;2022-12-18T08:31:19;-3.90;99.90
10660;DHT22;5378;53.206;13.316;2022-12-18T08:34:07;-3.90;99.90
10660;DHT22;5378;53.206;13.316;2022-12-18T08:36:55;-3.80;99.90
10660;DHT22;5378;53.206;13.316;2022-12-18T08:39:43;-3.80;99.90
10660;DHT22;5378;53.206;13.316;2022-12-18T08:42:30;-3.70;99.90
10660;DHT22;5378;53.206;13.316;2022-12-18T08:45:35;-3.60;99.90
10660;DHT22;5378;53.206;13.316;2022-12-18T08:48:22;-3.60;99.90
10660;DHT22;5378;53.206;13.316;2022-12-18T08:51:10;-3.60;99.90
10660;DHT22;5378;53.206;13.316;2022-12-18T08:53:57;-3.60;99.90
10660;DHT22;5378;53.206;13.316;2022-12-18T08:56:45;-3.60;99.90
10660;DHT22;5378;53.206;13.316;2022-12-18T08:59:32;-3.50;99.90
10660;DHT22;5378;53.206;13.316;2022-12-18T09:02:19;-3.50;99.90
10660;DHT22;5378;53.206;13.316;2022-12-18T09:05:06;-3.60;99.90
10660;DHT22;5378;53.206;13.316;2022-12-18T09:07:54;-3.50;99.90
10660;DHT22;5378;53.206;13.316;2022-12-18T09:10:42;-3.40;99.90
10660;DHT22;5378;53.206;13.316;2022-12-18T09:13:31;-3.40;99.90
10660;DHT22;5378;53.206;13.316;2022-12-18T09:16:18;-3.50;99.90
10660;DHT22;5378;53.206;13.316;2022-12-18T09:19:05;-3.40;99.90
10660;DHT22;5378;53.206;13.316;2022-12-18T09:21:52;-3.30;99.90
10660;DHT22;5378;53.206;13.316;2022-12-18T09:24:39;-3.30;99.90
10660;DHT22;5378;53.206;13.316;2022-12-18T09:27:26;-3.30;99.90
10660;DHT22;5378;53.206;13.316;2022-12-18T09:30:15;-3.50;99.90
10660;DHT22;5378;53.206;13.316;2022-12-18T09:33:02;-3.50;99.90
10660;DHT22;5378;53.206;13.316;2022-12-18T09:35:49;-3.30;99.90
10660;DHT22;5378;53.206;13.316;2022-12-18T09:38:36;-3.10;99.90
10660;DHT22;5378;53.206;13.316;2022-12-18T09:41:43;-3.00;99.90
10660;DHT22;5378;53.206;13.316;2022-12-18T09:44:34;-3.10;99.90
10660;DHT22;5378;53.206;13.316;2022-12-18T09:47:32;-3.00;99.90
10660;DHT22;5378;53.206;13.316;2022-12-18T09:50:25;-3.10;99.90
10660;DHT22;5378;53.206;13.316;2022-12-18T09:53:17;-3.10;99.90
10660;DHT22;5378;53.206;13.316;2022-12-18T09:56:10;-3.10;99.90
10660;DHT22;5378;53.206;13.316;2022-12-18T09:59:00;-3.00;99.90
10660;DHT22;5378;53.206;13.316;2022-12-18T10:01:47;-3.10;99.90
10660;DHT22;5378;53.206;13.316;2022-12-18T10:04:35;-3.20;99.90
10660;DHT22;5378;53.206;13.316;2022-12-18T10:07:28;-3.20;99.90
10660;DHT22;5378;53.206;13.316;2022-12-18T10:10:27;-3.30;99.90
10660;DHT22;5378;53.206;13.316;2022-12-18T10:13:23;-3.20;99.90
10660;DHT22;5378;53.206;13.316;2022-12-18T10:16:16;-3.30;99.90
10660;DHT22;5378;53.206;13.316;2022-12-18T10:19:16;-3.30;99.90
10660;DHT22;5378;53.206;13.316;2022-12-18T10:22:16;-3.30;99.90
10660;DHT22;5378;53.206;13.316;2022-12-18T10:25:13;-3.10;99.90
10660;DHT22;5378;53.206;13.316;2022-12-18T10:28:10;-2.90;99.90
10660;DHT22;5378;53.206;13.316;2022-12-18T10:30:59;-2.70;99.90
10660;DHT22;5378;53.206;13.316;2022-12-18T10:33:46;-2.70;99.90
10660;DHT22;5378;53.206;13.316;2022-12-18T10:36:34;-2.60;99.90
10660;DHT22;5378;53.206;13.316;2022-12-18T10:39:24;-2.60;99.90
10660;DHT22;5378;53.206;13.316;2022-12-18T10:42:17;-2.50;99.90
10660;DHT22;5378;53.206;13.316;2022-12-18T10:45:09;-2.60;99.90
10660;DHT22;5378;53.206;13.316;2022-12-18T10:47:57;-2.60;99.90
10660;DHT22;5378;53.206;13.316;2022-12-18T10:50:47;-2.50;99.90
10660;DHT22;5378;53.206;13.316;2022-12-18T10:53:57;-2.60;99.90
10660;DHT22;5378;53.206;13.316;2022-12-18T10:56:47;-2.50;99.90
10660;DHT22;5378;53.206;13.316;2022-12-18T10:59:50;-2.40;99.90
10660;DHT22;5378;53.206;13.316;2022-12-18T11:02:38;-2.40;99.90
10660;DHT22;5378;53.206;13.316;2022-12-18T11:05:28;-2.30;99.90
10660;DHT22;5378;53.206;13.316;2022-12-18T11:08:21;-2.30;99.90
10660;DHT22;5378;53.206;13.316;2022-12-18T11:11:19;-2.40;99.90
10660;DHT22;5378;53.206;13.316;2022-12-18T11:14:15;-2.40;99.90
10660;DHT22;5378;53.206;13.316;2022-12-18T11:17:05;-2.60;99.90
10660;DHT22;5378;53.206;13.316;2022-12-18T11:20:21;-2.60;99.90
10660;DHT22;5378;53.206;13.316;2022-12-18T11:23:12;-2.60;99.90
10660;DHT22;5378;53.206;13.316;2022-12-18T11:26:02;-2.60;99.90
10660;DHT22;5378;53.206;13.316;2022-12-18T11:28:51;-2.60;99.90
10660;DHT22;5378;53.206;13.316;2022-12-18T11:31:40;-2.70;99.90
10660;DHT22;5378;53.206;13.316;2022-12-18T11:34:29;-2.90;99.90
10660;DHT22;5378;53.206;13.316;2022-12-18T11:37:17;-3.00;99.90
10660;DHT22;5378;53.206;13.316;2022-12-18T11:40:10;-2.90;99.90
10660;DHT22;5378;53.206;13.316;2022-12-18T11:43:04;-2.90;99.90
10660;DHT22;5378;53.206;13.316;2022-12-18T11:45:55;-2.70;99.90
10660;DHT22;5378;53.206;13.316;2022-12-18T11:48:47;-2.60;99.90
10660;DHT22;5378;53.206;13.316;2022-12-18T11:51:40;-2.50;99.90
10660;DHT22;5378;53.206;13.316;2022-12-18T11:54:28;-2.60;99.90
10660;DHT22;5378;53.206;13.316;2022-12-18T11:57:25;-2.60;99.90
10660;DHT22;5378;53.206;13.316;2022-12-18T12:00:16;-2.60;99.90
10660;DHT22;5378;53.206;13.316;2022-12-18T12:03:20;-2.40;99.90
10660;DHT22;5378;53.206;13.316;2022-12-18T12:06:17;-2.30;99.90
10660;DHT22;5378;53.206;13.316;2022-12-18T12:09:16;-2.30;99.90
10660;DHT22;5378;53.206;13.316;2022-12-18T12:12:20;-2.30;99.90
10660;DHT22;5378;53.206;13.316;2022-12-18T12:15:20;-2.20;99.90
10660;DHT22;5378;53.206;13.316;2022-12-18T12:18:18;-2.20;99.90
10660;DHT22;5378;53.206;13.316;2022-12-18T12:21:15;-2.20;99.90
10660;DHT22;5378;53.206;13.316;2022-12-18T12:24:16;-2.20;99.90
10660;DHT22;5378;53.206;13.316;2022-12-18T12:27:13;-2.20;99.90
10660;DHT22;5378;53.206;13.316;2022-12-18T12:30:06;-2.20;99.90
10660;DHT22;5378;53.206;13.316;2022-12-18T12:33:04;-2.20;99.90
10660;DHT22;5378;53.206;13.316;2022-12-18T12:36:02;-2.20;99.90
10660;DHT22;5378;53.206;13.316;2022-12-18T12:38:54;-2.20;99.90
10660;DHT22;5378;53.206;13.316;2022-12-18T12:41:45;-2.30;99.90
10660;DHT22;5378;53.206;13.316;2022-12-18T12:44:51;-2.30;99.90
10660;DHT22;5378;53.206;13.316;2022-12-18T12:47:41;-2.30;99.90
10660;DHT22;5378;53.206;13.316;2022-12-18T12:50:33;-2.40;99.90
10660;DHT22;5378;53.206;13.316;2022-12-18T12:53:25;-2.30;99.90
10660;DHT22;5378;53.206;13.316;2022-12-18T12:56:16;-2.30;99.90
10660;DHT22;5378;53.206;13.316;2022-12-18T12:59:13;-2.30;99.90
10660;DHT22;5378;53.206;13.316;2022-12-18T13:02:09;-2.30;99.90
10660;DHT22;5378;53.206;13.316;2022-12-18T13:05:01;-2.40;99.90
10660;DHT22;5378;53.206;13.316;2022-12-18T13:07:53;-2.40;99.90
10660;DHT22;5378;53.206;13.316;2022-12-18T13:10:42;-2.50;99.90
10660;DHT22;5378;53.206;13.316;2022-12-18T13:13:48;-2.50;99.90
10660;DHT22;5378;53.206;13.316;2022-12-18T13:16:35;-2.50;99.90
10660;DHT22;5378;53.206;13.316;2022-12-18T13:19:23;-2.50;99.90
10660;DHT22;5378;53.206;13.316;2022-12-18T13:22:23;-2.50;99.90
10660;DHT22;5378;53.206;13.316;2022-12-18T13:25:31;-2.50;99.90
10660;DHT22;5378;53.206;13.316;2022-12-18T13:28:21;-2.60;99.90
10660;DHT22;5378;53.206;13.316;2022-12-18T13:31:10;-2.60;99.90
10660;DHT22;5378;53.206;13.316;2022-12-18T13:34:12;-2.60;99.90
10660;DHT22;5378;53.206;13.316;2022-12-18T13:37:41;-2.50;99.90
10660;DHT22;5378;53.206;13.316;2022-12-18T13:40:53;-2.40;99.90
10660;DHT22;5378;53.206;13.316;2022-12-18T13:43:46;-2.50;99.90
10660;DHT22;5378;53.206;13.316;2022-12-18T13:46:44;-2.50;99.90
10660;DHT22;5378;53.206;13.316;2022-12-18T13:49:37;-2.40;99.90
10660;DHT22;5378;53.206;13.316;2022-12-18T13:52:26;-2.50;99.90
10660;DHT22;5378;53.206;13.316;2022-12-18T13:55:17;-2.50;99.90
10660;DHT22;5378;53.206;13.316;2022-12-18T13:58:05;-2.60;99.90
10660;DHT22;5378;53.206;13.316;2022-12-18T14:00:53;-2.70;99.90
10660;DHT22;5378;53.206;13.316;2022-12-18T14:03:41;-2.90;99.90
10660;DHT22;5378;53.206;13.316;2022-12-18T14:06:28;-2.90;99.90
10660;DHT22;5378;53.206;13.316;2022-12-18T14:09:17;-3.00;99.90
10660;DHT22;5378;53.206;13.316;2022-12-18T14:12:11;-3.00;99.90
10660;DHT22;5378;53.206;13.316;2022-12-18T14:15:23;-3.00;99.90
10660;DHT22;5378;53.206;13.316;2022-12-18T14:18:20;-3.10;99.90
10660;DHT22;5378;53.206;13.316;2022-12-18T14:21:18;-3.00;99.90
10660;DHT22;5378;53.206;13.316;2022-12-18T14:24:13;-3.10;99.90
10660;DHT22;5378;53.206;13.316;2022-12-18T14:27:17;-2.90;99.90
10660;DHT22;5378;53.206;13.316;2022-12-18T14:30:24;-3.10;99.90
10660;DHT22;5378;53.206;13.316;2022-12-18T14:33:13;-3.30;99.90
10660;DHT22;5378;53.206;13.316;2022-12-18T14:36:02;-3.50;99.90
10660;DHT22;5378;53.206;13.316;2022-12-18T14:38:52;-3.40;99.90
10660;DHT22;5378;53.206;13.316;2022-12-18T14:41:39;-3.40;99.90
10660;DHT22;5378;53.206;13.316;2022-12-18T14:44:26;-3.30;99.90
10660;DHT22;5378;53.206;13.316;2022-12-18T14:47:19;-3.20;99.90
10660;DHT22;5378;53.206;13.316;2022-12-18T14:50:12;-3.20;99.90
10660;DHT22;5378;53.206;13.316;2022-12-18T14:53:00;-3.20;99.90
10660;DHT22;5378;53.206;13.316;2022-12-18T14:55:49;-3.30;99.90
10660;DHT22;5378;53.206;13.316;2022-12-18T14:58:37;-3.20;99.90
10660;DHT22;5378;53.206;13.316;2022-12-18T15:01:26;-3.20;99.90
10660;DHT22;5378;53.206;13.316;2022-12-18T15:04:25;-3.20;99.90
10660;DHT22;5378;53.206;13.316;2022-12-18T15:07:17;-3.10;99.90
10660;DHT22;5378;53.206;13.316;2022-12-18T15:10:11;-3.00;99.90
10660;DHT22;5378;53.206;13.316;2022-12-18T15:13:21;-3.00;99.90
10660;DHT22;5378;53.206;13.316;2022-12-18T15:16:11;-3.00;99.90
10660;DHT22;5378;53.206;13.316;2022-12-18T15:19:00;-3.10;99.90
10660;DHT22;5378;53.206;13.316;2022-12-18T15:21:47;-3.20;99.90
10660;DHT22;5378;53.206;13.316;2022-12-18T15:24:35;-3.20;99.90
10660;DHT22;5378;53.206;13.316;2022-12-18T15:27:28;-3.00;99.90
10660;DHT22;5378;53.206;13.316;2022-12-18T15:30:19;-2.80;99.90
10660;DHT22;5378;53.206;13.316;2022-12-18T15:33:20;-2.80;99.90
10660;DHT22;5378;53.206;13.316;2022-12-18T15:36:10;-2.80;99.90
10660;DHT22;5378;53.206;13.316;2022-12-18T15:38:57;-2.80;99.90
10660;DHT22;5378;53.206;13.316;2022-12-18T15:41:44;-2.80;99.90
10660;DHT22;5378;53.206;13.316;2022-12-18T15:44:46;-2.80;99.90
10660;DHT22;5378;53.206;13.316;2022-12-18T15:47:35;-2.90;99.90
10660;DHT22;5378;53.206;13.316;2022-12-18T15:50:23;-2.80;99.90
10660;DHT22;5378;53.206;13.316;2022-12-18T15:53:10;-2.70;99.90
10660;DHT22;5378;53.206;13.316;2022-12-18T15:55:58;-2.50;99.90
10660;DHT22;5378;53.206;13.316;2022-12-18T15:59:02;-2.70;99.90
10660;DHT22;5378;53.206;13.316;2022-12-18T16:01:52;-3.10;99.90
10660;DHT22;5378;53.206;13.316;2022-12-18T16:04:40;-3.00;99.90
10660;DHT22;5378;53.206;13.316;2022-12-18T16:07:28;-3.00;99.90
10660;DHT22;5378;53.206;13.316;2022-12-18T16:10:16;-3.00;99.90
10660;DHT22;5378;53.206;13.316;2022-12-18T16:13:02;-3.00;99.90
10660;DHT22;5378;53.206;13.316;2022-12-18T16:15:50;-3.00;99.90
10660;DHT22;5378;53.206;13.316;2022-12-18T16:18:37;-3.10;99.90
10660;DHT22;5378;53.206;13.316;2022-12-18T16:21:25;-3.00;99.90
10660;DHT22;5378;53.206;13.316;2022-12-18T16:24:15;-2.90;99.90
10660;DHT22;5378;53.206;13.316;2022-12-18T16:27:03;-2.80;99.90
10660;DHT22;5378;53.206;13.316;2022-12-18T16:29:50;-2.90;99.90
10660;DHT22;5378;53.206;13.316;2022-12-18T16:32:37;-3.00;99.90
10660;DHT22;5378;53.206;13.316;2022-12-18T16:35:25;-2.90;99.90
10660;DHT22;5378;53.206;13.316;2022-12-18T16:38:13;-3.00;99.90
10660;DHT22;5378;53.206;13.316;2022-12-18T16:41:01;-3.00;99.90
10660;DHT22;5378;53.206;13.316;2022-12-18T16:44:06;-3.10;99.90
10660;DHT22;5378;53.206;13.316;2022-12-18T16:46:53;-3.00;99.90
10660;DHT22;5378;53.206;13.316;2022-12-18T16:49:40;-3.10;99.90
10660;DHT22;5378;53.206;13.316;2022-12-18T16:52:27;-3.20;99.90
10660;DHT22;5378;53.206;13.316;2022-12-18T16:55:19;-3.30;99.90
10660;DHT22;5378;53.206;13.316;2022-12-18T16:58:06;-3.10;99.90
10660;DHT22;5378;53.206;13.316;2022-12-18T17:00:53;-2.90;99.90
10660;DHT22;5378;53.206;13.316;2022-12-18T17:03:41;-3.00;99.90
10660;DHT22;5378;53.206;13.316;2022-12-18T17:06:30;-3.00;99.90
10660;DHT22;5378;53.206;13.316;2022-12-18T17:09:18;-2.90;99.90
10660;DHT22;5378;53.206;13.316;2022-12-18T17:12:08;-2.80;99.90
10660;DHT22;5378;53.206;13.316;2022-12-18T17:14:56;-2.60;99.90
10660;DHT22;5378;53.206;13.316;2022-12-18T17:17:44;-2.60;99.90
10660;DHT22;5378;53.206;13.316;2022-12-18T17:20:30;-2.50;99.90
10660;DHT22;5378;53.206;13.316;2022-12-18T17:23:18;-2.50;99.90
10660;DHT22;5378;53.206;13.316;2022-12-18T17:26:05;-2.50;99.90
10660;DHT22;5378;53.206;13.316;2022-12-18T17:28:57;-2.50;99.90
10660;DHT22;5378;53.206;13.316;2022-12-18T17:31:45;-2.40;99.90
10660;DHT22;5378;53.206;13.316;2022-12-18T17:34:32;-2.40;99.90
10660;DHT22;5378;53.206;13.316;2022-12-18T17:37:19;-2.50;99.90
10660;DHT22;5378;53.206;13.316;2022-12-18T17:40:07;-2.50;99.90
10660;DHT22;5378;53.206;13.316;2022-12-18T17:42:54;-2.70;99.90
10660;DHT22;5378;53.206;13.316;2022-12-18T17:45:42;-2.80;99.90
10660;DHT22;5378;53.206;13.316;2022-12-18T17:48:30;-2.70;99.90
10660;DHT22;5378;53.206;13.316;2022-12-18T17:51:17;-2.70;99.90
10660;DHT22;5378;53.206;13.316;2022-12-18T17:54:04;-2.70;99.90
10660;DHT22;5378;53.206;13.316;2022-12-18T17:56:51;-2.70;99.90